Time;durP1;ratioP1;P1;durP2;ratioP2;P2;SDS_P1;SDS_P2;PMS_P1;PMS_P2;Temp;Humidity;BMP_temperature;BMP_pressure;BME280_temperature;BME280_humidity;BME280_pressure;Samples;Min_cycle;Max_cycle;Signal;HPM_P1;HPM_P2
2022/01/05 00:00:52;;;;;;;26.53;12.60;;;;;;;6.99;91.26;93966.59;4971261;28;20195;-61
2022/01/05 00:03:18;;;;;;;20.13;13.30;;;;;;;6.98;90.96;93949.81;4971257;28;20200;-62
2022/01/05 00:05:44;;;;;;;20.17;12.07;;;;;;;6.98;91.73;93952.34;4970397;28;20680;-61
2022/01/05 00:08:09;;;;;;;23.83;12.77;;;;;;;6.93;91.86;93944.34;4971574;28;20562;-61
2022/01/05 00:10:35;;;;;;;22.07;12.27;;;;;;;6.72;92.96;93919.94;4971779;28;20210;-59
2022/01/05 00:13:00;;;;;;;24.70;12.63;;;;;;;6.76;93.05;93936.44;4971390;28;20215;-61
2022/01/05 00:15:27;;;;;;;17.97;11.17;;;;;;;6.79;92.21;93936.16;4971635;28;20311;-61
2022/01/05 00:17:52;;;;;;;20.43;11.97;;;;;;;6.96;91.58;93949.16;4971427;28;20267;-62
2022/01/05 00:20:18;;;;;;;20.87;11.87;;;;;;;6.90;91.09;93962.28;4971470;28;20290;-62
2022/01/05 00:22:43;;;;;;;23.67;11.47;;;;;;;6.91;91.29;93948.72;4971145;28;20787;-60
2022/01/05 00:25:09;;;;;;;19.73;12.30;;;;;;;6.95;92.25;93945.03;4971512;28;20567;-61
2022/01/05 00:27:34;;;;;;;19.03;11.47;;;;;;;7.22;90.12;93968.00;4969848;28;20177;-62
2022/01/05 00:30:00;;;;;;;22.03;12.43;;;;;;;6.95;91.21;93950.09;4970988;28;20287;-61
2022/01/05 00:32:25;;;;;;;22.30;12.70;;;;;;;6.95;91.10;93950.09;4971257;28;20183;-61
2022/01/05 00:34:52;;;;;;;18.63;10.97;;;;;;;6.86;91.21;93959.22;4971303;28;20216;-58
2022/01/05 00:37:18;;;;;;;20.17;11.47;;;;;;;7.00;90.22;93958.88;4970817;28;20318;-59
2022/01/05 00:39:44;;;;;;;19.47;12.23;;;;;;;6.84;91.55;93940.84;4969669;28;20208;-59
2022/01/05 00:42:10;;;;;;;21.13;11.07;;;;;;;6.84;92.17;93942.56;4971086;28;20304;-62
2022/01/05 00:44:35;;;;;;;18.70;11.23;;;;;;;6.76;92.53;93933.09;4970994;28;20243;-61
2022/01/05 00:47:01;;;;;;;19.73;12.07;;;;;;;6.86;91.64;93948.28;4970989;28;20184;-61
2022/01/05 00:49:26;;;;;;;22.47;11.03;;;;;;;6.78;91.48;93943.88;4970978;28;20203;-58
2022/01/05 00:51:52;;;;;;;16.90;11.67;;;;;;;6.61;92.24;93917.47;4970691;28;20225;-59
2022/01/05 00:54:17;;;;;;;17.57;11.10;;;;;;;6.81;91.10;93925.94;4970484;28;20659;-58
2022/01/05 00:56:43;;;;;;;22.10;11.83;;;;;;;6.76;91.31;93944.00;4970603;28;20199;-59
2022/01/05 00:59:08;;;;;;;20.27;11.80;;;;;;;6.61;91.54;93934.34;4970497;28;20198;-58
2022/01/05 01:01:34;;;;;;;21.13;11.33;;;;;;;6.58;92.26;93929.53;4970827;28;20250;-61
2022/01/05 01:03:59;;;;;;;16.33;10.87;;;;;;;6.64;92.23;93932.38;4953113;28;20314;-61
2022/01/05 01:06:24;;;;;;;20.17;12.03;;;;;;;6.69;92.17;93934.50;4970581;28;20208;-61
2022/01/05 01:08:50;;;;;;;21.77;11.80;;;;;;;6.57;92.81;93916.13;4970761;28;20191;-62
2022/01/05 01:11:16;;;;;;;24.70;12.70;;;;;;;6.59;92.95;93906.69;4970039;28;20279;-60
2022/01/05 01:13:43;;;;;;;19.30;12.03;;;;;;;6.55;92.84;93912.91;4970541;28;20244;-62
2022/01/05 01:16:09;;;;;;;16.30;10.80;;;;;;;6.72;91.96;93914.06;4970587;28;20207;-61
2022/01/05 01:18:35;;;;;;;18.43;10.97;;;;;;;6.70;91.93;93911.69;4970394;28;20191;-61
2022/01/05 01:21:02;;;;;;;17.23;11.10;;;;;;;6.81;91.91;93925.94;4970345;28;20209;-59
2022/01/05 01:23:27;;;;;;;20.37;11.43;;;;;;;6.70;91.53;93921.78;4968866;28;20292;-58
2022/01/05 01:25:53;;;;;;;15.77;10.13;;;;;;;6.85;90.92;93934.09;4968937;28;20223;-59
2022/01/05 01:28:20;;;;;;;20.43;10.80;;;;;;;6.94;90.54;93951.81;4970179;28;20676;-61
2022/01/05 01:30:46;;;;;;;17.57;10.27;;;;;;;6.85;90.61;93939.13;4970721;28;20258;-58
2022/01/05 01:33:12;;;;;;;16.30;9.93;;;;;;;6.88;90.72;93936.34;4968917;28;20235;-61
2022/01/05 01:35:37;;;;;;;16.73;10.27;;;;;;;6.90;90.06;93937.81;4970591;28;20204;-61
2022/01/05 01:38:03;;;;;;;37.30;10.80;;;;;;;6.82;90.58;93925.03;4970441;28;20574;-60
2022/01/05 01:40:29;;;;;;;16.60;9.90;;;;;;;6.81;89.65;93923.41;4970523;28;20207;-61
2022/01/05 01:42:55;;;;;;;17.80;9.43;;;;;;;6.86;90.05;93921.31;4970085;28;20201;-58
2022/01/05 01:45:20;;;;;;;17.37;10.27;;;;;;;6.86;89.51;93923.03;4970329;28;20230;-62
2022/01/05 01:47:46;;;;;;;14.97;9.00;;;;;;;6.85;90.43;93917.19;4969999;28;20183;-59
2022/01/05 01:50:13;;;;;;;17.37;10.77;;;;;;;6.80;89.80;93921.81;4970266;28;20238;-61
2022/01/05 01:52:38;;;;;;;15.47;9.33;;;;;;;6.63;90.47;93913.09;4970105;28;20188;-59
2022/01/05 01:55:05;;;;;;;14.70;9.50;;;;;;;6.70;90.66;93909.16;4969921;28;20215;-62
2022/01/05 01:57:34;;;;;;;18.43;9.90;;;;;;;6.68;90.42;93903.44;4969902;28;20173;-63
2022/01/05 02:00:00;;;;;;;21.93;10.10;;;;;;;6.70;90.60;93898.25;4970180;28;20211;-61
2022/01/05 02:02:26;;;;;;;18.23;9.97;;;;;;;6.69;90.87;93904.22;4969773;28;20241;-61
2022/01/05 02:04:52;;;;;;;16.63;9.07;;;;;;;6.76;90.21;93918.75;4969946;28;20224;-62
2022/01/05 02:07:18;;;;;;;16.00;9.27;;;;;;;6.68;90.02;93916.06;4969732;28;20204;-62
2022/01/05 02:09:43;;;;;;;15.33;9.70;;;;;;;6.67;90.42;93908.59;4969850;28;20271;-62
2022/01/05 02:12:10;;;;;;;15.83;10.13;;;;;;;6.53;91.34;93893.75;4969746;28;20228;-58
2022/01/05 02:14:36;;;;;;;18.97;10.30;;;;;;;6.54;91.52;93883.56;4969660;28;20265;-61
2022/01/05 02:17:11;;;;;;;16.10;8.93;;;;;;;6.61;91.30;93891.41;4969729;28;20183;-59
2022/01/05 02:19:36;;;;;;;12.97;9.13;;;;;;;6.57;91.28;93887.53;4969796;28;20692;-59
2022/01/05 02:22:03;;;;;;;15.67;9.63;;;;;;;6.63;91.26;93892.88;4969581;28;20309;-59
2022/01/05 02:24:29;;;;;;;14.77;8.87;;;;;;;6.60;91.72;93885.56;4971190;28;20277;-58
2022/01/05 02:26:54;;;;;;;16.47;8.97;;;;;;;6.59;91.57;93881.44;4973186;28;20179;-61
2022/01/05 02:29:21;;;;;;;16.60;9.63;;;;;;;6.72;91.26;93886.28;4973049;28;20580;-61
2022/01/05 02:31:47;;;;;;;13.70;8.80;;;;;;;6.86;90.09;93902.84;4973070;28;20210;-62
2022/01/05 02:34:17;;;;;;;17.77;9.00;;;;;;;6.85;90.48;93891.16;4972918;28;20267;-62
2022/01/05 02:36:42;;;;;;;15.97;9.50;;;;;;;6.91;90.40;93883.06;4972788;28;20740;-61
2022/01/05 02:39:07;;;;;;;15.80;9.17;;;;;;;6.98;89.03;93896.75;4955449;28;20745;-61
2022/01/05 02:41:33;;;;;;;15.27;9.53;;;;;;;7.03;89.86;93894.66;4972595;28;20192;-61
2022/01/05 02:43:58;;;;;;;13.50;9.27;;;;;;;7.08;89.07;93905.19;4972797;28;20261;-60
2022/01/05 02:46:24;;;;;;;15.17;9.40;;;;;;;7.13;87.98;93901.34;4972852;28;20201;-60
2022/01/05 02:48:52;;;;;;;12.93;8.70;;;;;;;7.18;88.08;93903.50;4971339;28;20206;-61
2022/01/05 02:51:18;;;;;;;19.17;9.33;;;;;;;7.26;87.06;93913.75;4971204;28;20580;-62
2022/01/05 02:53:43;;;;;;;14.53;9.03;;;;;;;7.24;87.53;93902.97;4972524;28;20196;-61
2022/01/05 02:56:10;;;;;;;15.70;8.97;;;;;;;7.28;86.74;93906.84;4971063;28;20240;-58
2022/01/05 02:58:36;;;;;;;13.50;9.00;;;;;;;7.21;87.83;93890.59;4972645;28;20184;-61
2022/01/05 03:01:02;;;;;;;19.70;9.47;;;;;;;7.12;88.70;93881.25;4971030;28;20261;-60
2022/01/05 03:03:28;;;;;;;17.67;8.90;;;;;;;7.28;87.42;93887.44;4972257;28;20204;-61
2022/01/05 03:05:53;;;;;;;19.30;10.27;;;;;;;7.15;87.89;93884.31;4972316;28;20196;-59
2022/01/05 03:08:19;;;;;;;18.63;10.40;;;;;;;7.16;88.73;93877.53;4972337;28;20181;-62
2022/01/05 03:10:44;;;;;;;11.73;9.03;;;;;;;7.22;88.74;93892.19;4971128;28;20744;-59
2022/01/05 03:13:10;;;;;;;15.03;9.00;;;;;;;7.27;86.63;93910.31;4972264;28;20181;-58
2022/01/05 03:15:35;;;;;;;16.40;9.57;;;;;;;7.01;87.11;93886.41;4972731;28;20295;-58
2022/01/05 03:18:05;;;;;;;15.17;8.90;;;;;;;6.76;89.08;93855.63;4972142;28;20184;-60
2022/01/05 03:20:31;;;;;;;18.73;9.50;;;;;;;6.71;90.59;93846.78;4972701;28;20215;-61
2022/01/05 03:23:04;;;;;;;16.93;9.60;;;;;;;6.75;90.04;93853.19;4972079;28;20582;-59
2022/01/05 03:25:30;;;;;;;20.97;10.27;;;;;;;6.76;89.81;93852.28;4970997;28;20639;-59
2022/01/05 03:27:56;;;;;;;17.60;9.73;;;;;;;6.80;89.24;93871.31;4971873;28;20195;-59
2022/01/05 03:30:25;;;;;;;16.00;9.70;;;;;;;6.67;89.98;93858.06;4972191;28;20213;-58
2022/01/05 03:35:31;;;;;;;22.63;10.00;;;;;;;6.63;90.00;93857.53;4971693;28;20280;-57
2022/01/05 03:37:57;;;;;;;16.63;9.67;;;;;;;6.55;90.81;93847.28;4972178;28;20207;-62
2022/01/05 03:40:23;;;;;;;15.10;8.87;;;;;;;6.73;88.54;93881.09;4972312;28;20298;-61
2022/01/05 03:42:49;;;;;;;16.77;8.73;;;;;;;6.48;89.31;93858.00;4971639;28;20270;-59
2022/01/05 03:45:14;;;;;;;15.37;8.43;;;;;;;6.43;90.14;93857.56;4972034;28;20208;-59
2022/01/05 03:47:40;;;;;;;24.40;9.53;;;;;;;6.50;88.33;93864.53;4971696;28;20666;-60
2022/01/05 03:50:06;;;;;;;19.23;9.90;;;;;;;6.36;88.18;93886.75;4979005;23;20256;-59
2022/01/05 03:52:33;;;;;;;20.57;9.97;;;;;;;6.00;90.14;93855.16;4970277;28;20186;-59
2022/01/05 03:54:59;;;;;;;16.13;10.00;;;;;;;5.76;92.51;93827.63;4971826;28;20671;-60
2022/01/05 03:57:25;;;;;;;18.20;10.47;;;;;;;5.74;93.37;93839.56;4971501;28;20258;-58
2022/01/05 03:59:51;;;;;;;13.97;8.33;;;;;;;5.64;94.44;93832.84;4971554;28;20200;-59
2022/01/05 04:02:17;;;;;;;14.83;8.90;;;;;;;5.88;93.11;93856.16;4971326;28;20239;-59
2022/01/05 04:04:42;;;;;;;16.47;8.57;;;;;;;5.85;93.12;93846.31;4970089;28;20234;-59
2022/01/05 04:07:08;;;;;;;15.97;8.33;;;;;;;5.61;95.86;93836.44;4971768;28;20183;-61
2022/01/05 04:09:34;;;;;;;15.00;8.73;;;;;;;5.67;95.25;93833.41;4971736;28;20677;-62
2022/01/05 04:11:59;;;;;;;15.40;8.00;;;;;;;5.49;97.26;93829.00;4971405;28;20190;-61
2022/01/05 04:14:25;;;;;;;14.57;8.57;;;;;;;5.58;96.39;93823.25;4971713;28;20635;-61
2022/01/05 04:16:50;;;;;;;13.67;7.83;;;;;;;5.67;96.28;93828.38;4971206;28;20248;-61
2022/01/05 04:19:16;;;;;;;13.83;8.20;;;;;;;5.60;97.12;93821.41;4971603;28;20620;-61
2022/01/05 04:21:42;;;;;;;15.70;8.77;;;;;;;5.42;98.60;93816.09;4971179;28;20566;-61
2022/01/05 04:24:08;;;;;;;14.73;7.67;;;;;;;5.50;98.21;93815.47;4969946;28;20693;-61
2022/01/05 04:26:33;;;;;;;14.50;8.07;;;;;;;5.64;97.80;93818.53;4971200;28;20287;-59
2022/01/05 04:28:58;;;;;;;12.73;8.37;;;;;;;5.64;97.46;93807.63;4971612;28;20255;-62
2022/01/05 04:31:24;;;;;;;12.00;8.00;;;;;;;5.65;98.12;93805.00;4953773;28;20268;-61
2022/01/05 04:33:49;;;;;;;13.43;8.40;;;;;;;5.66;97.61;93814.16;4970086;28;20193;-61
2022/01/05 04:36:15;;;;;;;10.47;7.50;;;;;;;5.65;98.19;93815.09;4971150;28;20246;-61
2022/01/05 04:38:40;;;;;;;11.93;6.83;;;;;;;5.80;97.49;93828.19;4969867;28;20220;-61
2022/01/05 04:41:06;;;;;;;11.10;7.23;;;;;;;5.81;97.75;93814.66;4970851;28;20372;-63
2022/01/05 04:43:31;;;;;;;14.20;7.40;;;;;;;5.75;98.18;93828.56;4970725;28;20593;-62
2022/01/05 04:45:57;;;;;;;12.47;7.67;;;;;;;5.88;97.88;93828.41;4969168;28;20199;-60
2022/01/05 04:48:22;;;;;;;9.97;6.77;;;;;;;6.00;97.44;93827.41;4970388;28;20219;-62
2022/01/05 04:50:48;;;;;;;15.13;8.30;;;;;;;6.06;97.32;93829.44;4970989;28;20277;-62
2022/01/05 04:53:14;;;;;;;10.23;7.30;;;;;;;6.14;96.50;93824.59;4970992;28;20559;-59
2022/01/05 04:55:42;;;;;;;14.77;8.23;;;;;;;6.17;96.19;93821.03;4970653;28;20206;-59
2022/01/05 04:58:08;;;;;;;12.93;8.10;;;;;;;6.32;95.01;93840.75;4970765;28;20348;-59
2022/01/05 05:00:34;;;;;;;14.57;7.90;;;;;;;6.33;97.45;93809.56;4970660;28;20209;-58
2022/01/05 05:02:59;;;;;;;12.63;7.60;;;;;;;7.22;100.00;93829.00;4970724;28;20219;-59
2022/01/05 05:05:25;;;;;;;12.07;8.17;;;;;;;8.09;100.00;93831.44;4970780;28;20211;-57
2022/01/05 05:07:50;;;;;;;13.60;8.17;;;;;;;8.35;100.00;93884.88;4970530;28;20715;-60
2022/01/05 05:10:16;;;;;;;13.00;8.53;;;;;;;8.07;100.00;93904.19;4970516;28;20244;-62
2022/01/05 05:12:42;;;;;;;13.57;8.10;;;;;;;7.94;100.00;93931.47;4969095;28;20290;-60
2022/01/05 05:15:07;;;;;;;17.93;8.53;;;;;;;7.79;100.00;93947.16;4968661;28;20314;-60
2022/01/05 05:17:33;;;;;;;13.70;8.93;;;;;;;7.35;100.00;93918.84;4970084;28;20283;-58
2022/01/05 05:19:58;;;;;;;13.60;9.87;;;;;;;6.98;100.00;93901.81;4970287;28;20210;-59
2022/01/05 05:22:24;;;;;;;17.00;8.87;;;;;;;6.91;100.00;93913.38;4970330;28;20188;-60
2022/01/05 05:24:50;;;;;;;14.10;8.97;;;;;;;6.85;100.00;93909.59;4969625;28;20296;-60
2022/01/05 05:27:15;;;;;;;15.17;8.87;;;;;;;6.81;100.00;93932.72;4969855;28;20642;-60
2022/01/05 05:29:42;;;;;;;21.47;9.93;;;;;;;6.64;100.00;93902.06;4970402;28;20619;-60
2022/01/05 05:32:08;;;;;;;13.53;8.23;;;;;;;8.26;100.00;93873.03;4970337;28;20184;-59
2022/01/05 05:34:33;;;;;;;12.30;9.00;;;;;;;10.43;100.00;93877.22;4968625;28;20216;-62
2022/01/05 05:37:07;;;;;;;17.43;11.37;;;;;;;9.85;100.00;93900.53;4970257;28;20193;-61
2022/01/05 05:39:33;;;;;;;16.90;11.27;;;;;;;8.67;100.00;93986.66;4970376;28;20285;-61
2022/01/05 05:41:58;;;;;;;20.37;10.80;;;;;;;8.39;100.00;93962.97;4969861;28;20192;-60
2022/01/05 05:44:24;;;;;;;19.60;11.43;;;;;;;8.28;100.00;93975.75;4968428;28;20227;-60
2022/01/05 05:46:49;;;;;;;15.40;10.47;;;;;;;8.21;100.00;93959.47;4969899;28;20188;-61
2022/01/05 05:49:15;;;;;;;15.77;10.00;;;;;;;7.96;100.00;93949.84;4975499;23;20285;-61
2022/01/05 05:51:47;;;;;;;16.20;11.83;;;;;;;7.70;100.00;93951.25;4968591;28;20184;-60
2022/01/05 05:54:13;;;;;;;20.80;12.93;;;;;;;7.31;100.00;93916.72;4969844;28;20561;-65
2022/01/05 05:56:44;;;;;;;22.73;12.00;;;;;;;6.78;100.00;93904.28;4969901;28;20646;-64
2022/01/05 05:59:10;;;;;;;24.80;12.87;;;;;;;6.30;100.00;93882.22;4972490;28;20680;-62
2022/01/05 06:01:36;;;;;;;22.37;12.43;;;;;;;6.29;100.00;93895.72;4973503;28;20540;-59
2022/01/05 06:04:01;;;;;;;20.93;12.07;;;;;;;6.26;100.00;93889.19;4973406;28;20242;-65
2022/01/05 06:06:27;;;;;;;22.73;12.23;;;;;;;6.47;100.00;93909.41;4973071;28;20226;-64
2022/01/05 06:08:54;;;;;;;21.80;12.23;;;;;;;6.36;100.00;93891.81;4973397;28;20198;-65
2022/01/05 06:11:19;;;;;;;19.73;10.23;;;;;;;6.48;100.00;93909.28;4973051;28;20203;-65
2022/01/05 06:13:45;;;;;;;20.23;11.60;;;;;;;6.36;100.00;93891.81;4973599;28;20184;-65
2022/01/05 06:16:10;;;;;;;22.57;12.67;;;;;;;6.27;100.00;93887.50;4972974;28;20211;-64
2022/01/05 06:18:35;;;;;;;18.83;13.10;;;;;;;6.03;100.00;93882.69;4973285;28;20187;-61
2022/01/05 06:21:01;;;;;;;26.63;12.87;;;;;;;6.02;100.00;93896.19;4972880;28;20574;-61
2022/01/05 06:23:26;;;;;;;18.60;11.43;;;;;;;6.12;100.00;93904.63;4973250;28;20251;-62
2022/01/05 06:25:52;;;;;;;20.57;12.30;;;;;;;6.10;100.00;93906.50;4972560;28;20270;-62
2022/01/05 06:28:17;;;;;;;18.57;10.63;;;;;;;6.22;100.00;93915.59;4973189;28;20186;-61
2022/01/05 06:30:43;;;;;;;18.67;10.97;;;;;;;6.25;100.00;93915.38;4972605;28;20237;-62
2022/01/05 06:33:08;;;;;;;20.37;11.13;;;;;;;6.05;100.00;93912.81;4971549;28;20599;-65
2022/01/05 06:35:34;;;;;;;19.63;10.17;;;;;;;6.21;100.00;93914.03;4972583;28;20789;-64
2022/01/05 06:38:00;;;;;;;26.93;12.57;;;;;;;6.12;100.00;93899.59;4973026;28;20191;-60
2022/01/05 06:40:26;;;;;;;22.73;10.60;;;;;;;6.28;100.00;93932.78;4972526;28;20272;-59
2022/01/05 06:42:52;;;;;;;16.90;10.57;;;;;;;6.19;100.00;93910.81;4972857;28;20262;-61
2022/01/05 06:45:17;;;;;;;15.07;8.80;;;;;;;6.21;100.00;93908.97;4972751;28;20704;-60
2022/01/05 06:47:43;;;;;;;19.10;9.80;;;;;;;6.20;100.00;93899.00;4955046;28;20717;-61
2022/01/05 06:50:09;;;;;;;14.50;8.80;;;;;;;6.26;100.00;93914.44;4971204;28;20199;-60
2022/01/05 06:52:36;;;;;;;16.93;9.10;;;;;;;6.28;100.00;93921.91;4971499;28;20192;-61
2022/01/05 06:55:02;;;;;;;21.50;11.07;;;;;;;6.41;100.00;93915.75;4972259;28;20341;-66
2022/01/05 06:57:27;;;;;;;20.07;9.80;;;;;;;6.45;100.00;93927.19;4972598;28;20194;-65
2022/01/05 06:59:53;;;;;;;21.93;10.43;;;;;;;6.46;100.00;93912.88;4972294;28;20199;-67
2022/01/05 07:02:18;;;;;;;15.33;9.37;;;;;;;6.65;100.00;93906.19;4972394;28;20562;-61
2022/01/05 07:04:45;;;;;;;22.77;11.17;;;;;;;6.70;100.00;93918.44;4972442;28;20239;-60
2022/01/05 07:07:11;;;;;;;22.27;10.63;;;;;;;6.77;100.00;93950.66;4971124;28;20220;-60
2022/01/05 07:09:36;;;;;;;17.33;9.33;;;;;;;6.43;100.00;93924.00;4954011;28;20659;-63
2022/01/05 07:12:02;;;;;;;18.40;10.43;;;;;;;6.04;100.00;93884.28;4972406;28;20226;-62
2022/01/05 07:14:28;;;;;;;16.20;9.80;;;;;;;6.27;100.00;93890.81;4972329;28;20184;-60
2022/01/05 07:16:54;;;;;;;25.10;11.40;;;;;;;6.47;100.00;93920.31;4972420;28;20189;-69
2022/01/05 07:19:20;;;;;;;25.53;10.43;;;;;;;6.73;100.00;93913.94;4972270;28;20222;-68
2022/01/05 07:21:49;;;;;;;10.63;7.60;;;;;;;6.69;100.00;93940.38;4972065;28;20196;-61
2022/01/05 07:24:17;;;;;;;17.73;9.20;;;;;;;6.77;100.00;93902.66;4970438;28;20299;-61
2022/01/05 07:26:44;;;;;;;15.43;8.00;;;;;;;6.78;100.00;93934.59;4978449;23;20211;-60
2022/01/05 07:29:11;;;;;;;11.53;7.30;;;;;;;6.75;100.00;93957.53;4971437;28;20229;-60
2022/01/05 07:31:37;;;;;;;12.60;6.97;;;;;;;6.75;100.00;93934.00;4952388;29;20184;-61
2022/01/05 07:34:02;;;;;;;11.37;6.90;;;;;;;6.79;100.00;93933.63;4952330;29;20574;-63
2022/01/05 07:36:28;;;;;;;13.80;7.73;;;;;;;7.00;100.00;93922.69;4976209;23;20670;-62
2022/01/05 07:38:54;;;;;;;13.80;7.53;;;;;;;7.15;100.00;93937.38;4971731;28;20241;-61
2022/01/05 07:41:19;;;;;;;13.97;7.60;;;;;;;7.30;100.00;93966.47;4971448;28;20253;-62
2022/01/05 07:43:45;;;;;;;12.93;7.33;;;;;;;7.27;100.00;93925.47;4971405;28;20643;-62
2022/01/05 07:46:10;;;;;;;13.63;7.50;;;;;;;7.21;100.00;93919.19;4971374;28;20200;-62
2022/01/05 07:48:36;;;;;;;14.07;7.90;;;;;;;7.32;100.00;93923.34;4971426;28;20545;-62
2022/01/05 07:51:01;;;;;;;12.40;7.90;;;;;;;7.42;100.00;93930.03;4971632;28;20219;-62
2022/01/05 07:53:27;;;;;;;21.40;10.80;;;;;;;7.50;100.00;93944.56;4971397;28;20263;-62
2022/01/05 07:55:52;;;;;;;26.30;13.90;;;;;;;7.50;100.00;93942.03;4971404;28;20209;-63
2022/01/05 07:58:20;;;;;;;30.50;15.43;;;;;;;7.80;100.00;93990.03;4971374;28;20277;-61
2022/01/05 08:00:45;;;;;;;34.50;17.50;;;;;;;7.69;100.00;93957.28;4971647;28;20222;-62
2022/01/05 08:03:11;;;;;;;30.73;18.20;;;;;;;7.56;100.00;93927.16;4970000;28;20619;-62
2022/01/05 08:05:37;;;;;;;34.73;18.00;;;;;;;7.57;100.00;93935.53;4971003;28;20212;-62
2022/01/05 08:08:03;;;;;;;30.73;17.27;;;;;;;7.81;100.00;93936.00;4971312;28;20168;-63
2022/01/05 08:10:28;;;;;;;31.77;16.40;;;;;;;8.01;100.00;94033.78;4971664;28;20307;-62
2022/01/05 08:12:54;;;;;;;36.17;17.87;;;;;;;8.04;100.00;93992.22;4969710;28;20180;-61
2022/01/05 08:15:20;;;;;;;32.20;17.77;;;;;;;8.09;100.00;93950.41;4969545;28;20281;-62
2022/01/05 08:17:45;;;;;;;33.00;17.10;;;;;;;8.48;100.00;93985.88;4969617;28;20215;-62
2022/01/05 08:20:11;;;;;;;31.37;16.97;;;;;;;8.60;100.00;94015.22;4970184;28;20218;-61
2022/01/05 08:22:44;;;;;;;29.27;15.93;;;;;;;8.86;100.00;93999.31;4970918;28;20260;-62
2022/01/05 08:25:11;;;;;;;23.97;14.93;;;;;;;9.18;98.95;94052.22;4971186;28;20212;-62
2022/01/05 08:27:45;;;;;;;33.33;14.27;;;;;;;9.36;100.00;94006.66;4970824;28;20180;-62
2022/01/05 08:30:16;;;;;;;22.60;12.33;;;;;;;9.61;95.65;94080.44;4969606;28;20204;-62
2022/01/05 08:32:43;;;;;;;22.77;12.37;;;;;;;9.68;93.95;94076.41;4970955;28;20642;-62
2022/01/05 08:35:10;;;;;;;21.07;12.20;;;;;;;9.97;95.17;94051.72;4969568;28;20770;-63
2022/01/05 08:37:36;;;;;;;18.17;11.17;;;;;;;10.10;95.81;94013.31;4970643;28;20251;-63
2022/01/05 08:40:02;;;;;;;17.07;10.33;;;;;;;10.49;95.36;94026.56;4970867;28;20295;-61
2022/01/05 08:42:28;;;;;;;19.50;10.00;;;;;;;10.75;94.32;94042.66;4970751;28;20665;-61
2022/01/05 08:44:53;;;;;;;23.60;12.50;;;;;;;10.92;95.49;94019.78;4969339;28;20252;-65
2022/01/05 08:47:19;;;;;;;20.27;11.87;;;;;;;11.19;94.46;94040.97;4970901;28;20181;-61
2022/01/05 08:49:44;;;;;;;23.13;11.23;;;;;;;11.19;92.52;94077.38;4969455;28;20212;-60
2022/01/05 08:52:10;;;;;;;19.93;11.07;;;;;;;11.12;90.78;94085.72;4969126;28;20172;-61
2022/01/05 08:54:35;;;;;;;21.73;11.17;;;;;;;11.09;91.18;94065.69;4970635;28;20601;-60
2022/01/05 08:57:01;;;;;;;13.73;8.90;;;;;;;10.95;90.33;94069.53;4969423;28;20172;-60
2022/01/05 08:59:26;;;;;;;13.50;8.33;;;;;;;11.12;93.11;94025.50;4970442;28;20192;-68
2022/01/05 09:01:52;;;;;;;16.60;9.90;;;;;;;11.42;90.21;94081.03;4970586;28;20185;-61
2022/01/05 09:04:17;;;;;;;18.23;10.43;;;;;;;11.15;87.55;94105.81;4970514;28;20216;-61
2022/01/05 09:06:43;;;;;;;18.87;10.03;;;;;;;11.43;88.76;94084.41;4970295;28;20195;-62
2022/01/05 09:09:08;;;;;;;13.57;8.93;;;;;;;11.47;85.61;94111.16;4969139;28;20280;-65
2022/01/05 09:11:34;;;;;;;21.23;8.70;;;;;;;10.98;87.15;94074.34;4969064;28;20196;-68
2022/01/05 09:14:00;;;;;;;13.10;8.07;;;;;;;11.52;89.37;94048.66;4970457;28;20245;-61
2022/01/05 09:16:25;;;;;;;14.93;8.47;;;;;;;12.06;89.74;94036.53;4970199;28;20199;-60
2022/01/05 09:18:51;;;;;;;16.63;9.57;;;;;;;11.99;82.86;94147.63;4968975;28;20568;-62
2022/01/05 09:21:16;;;;;;;16.07;8.47;;;;;;;12.09;84.42;94094.81;4969388;28;20597;-66
2022/01/05 09:23:43;;;;;;;15.60;8.00;;;;;;;12.33;83.30;94117.84;4969946;28;20232;-66
2022/01/05 09:26:09;;;;;;;15.80;8.70;;;;;;;12.43;79.87;94156.75;4970299;28;20200;-65
2022/01/05 09:28:42;;;;;;;14.50;7.87;;;;;;;12.42;75.57;94132.22;4969017;28;20611;-62
2022/01/05 09:31:08;;;;;;;14.73;8.00;;;;;;;12.63;77.26;94082.41;4970220;28;20204;-62
2022/01/05 09:33:33;;;;;;;11.83;8.53;;;;;;;12.99;77.96;94043.88;4969532;28;20176;-61
2022/01/05 09:36:02;;;;;;;15.93;7.73;;;;;;;12.96;73.47;94119.00;4969960;28;20224;-62
2022/01/05 09:43:56;;;;;;;10.20;7.43;;;;;;;13.11;69.90;94081.69;4970173;28;20721;-64
2022/01/05 09:46:55;;;;;;;14.73;7.47;;;;;;;13.38;72.08;94039.75;4970235;28;20205;-66
2022/01/05 09:49:32;;;;;;;13.70;7.43;;;;;;;13.83;69.73;94077.50;4940358;28;20204;-65
2022/01/05 09:52:04;;;;;;;15.53;7.30;;;;;;;13.93;68.20;94090.88;4970117;28;20217;-62
2022/01/05 09:54:32;;;;;;;10.77;7.17;;;;;;;14.15;69.53;94055.19;4970434;28;20192;-66
2022/01/05 09:56:58;;;;;;;14.23;7.93;;;;;;;14.34;66.98;94097.50;4970083;28;20225;-62
2022/01/05 09:59:24;;;;;;;12.17;7.50;;;;;;;14.17;64.45;94132.50;4968602;28;20215;-61
2022/01/05 10:01:49;;;;;;;12.33;6.87;;;;;;;14.17;66.25;94081.38;4970100;28;20188;-62
2022/01/05 10:04:16;;;;;;;13.07;6.67;;;;;;;14.37;65.49;94071.56;4970317;28;20623;-65
2022/01/05 10:06:42;;;;;;;12.67;8.60;;;;;;;14.44;64.17;94092.97;4969680;28;20187;-62
2022/01/05 10:09:08;;;;;;;11.43;8.37;;;;;;;14.58;63.91;94104.25;4970008;28;20279;-66
2022/01/05 10:11:35;;;;;;;11.47;7.57;;;;;;;14.61;62.18;94117.50;4969675;28;20303;-63
2022/01/05 10:14:01;;;;;;;17.77;8.20;;;;;;;14.78;62.64;94090.88;4969684;28;20208;-62
2022/01/05 10:16:27;;;;;;;16.63;7.55;;;;;;;14.79;58.95;94161.53;4969577;28;20232;-63
2022/01/05 10:18:52;;;;;;;11.07;7.00;;;;;;;14.74;61.17;94083.69;4969958;28;20295;-62
2022/01/05 10:21:18;;;;;;;9.73;6.70;;;;;;;14.90;60.60;94099.75;4969552;28;20199;-64
2022/01/05 10:23:49;;;;;;;10.87;6.93;;;;;;;15.22;60.33;94105.63;4968261;28;20239;-63
2022/01/05 10:26:20;;;;;;;14.32;7.43;;;;;;;15.23;58.90;94081.63;4969492;28;20196;-62
2022/01/05 10:28:46;;;;;;;13.30;7.00;;;;;;;15.18;58.76;94091.56;4969457;28;20250;-63
2022/01/05 10:31:25;;;;;;;12.00;7.43;;;;;;;15.24;60.58;94040.47;4969301;28;20201;-60
2022/01/05 10:33:51;;;;;;;15.83;7.33;;;;;;;15.52;59.68;94048.41;4969555;28;20185;-62
2022/01/05 10:36:17;;;;;;;8.82;6.35;;;;;;;15.91;56.78;94120.75;4969707;28;20220;-64
2022/01/05 10:38:59;;;;;;;9.02;6.57;;;;;;;16.15;57.65;94084.59;4969280;28;20603;-64
2022/01/05 10:41:27;;;;;;;9.63;6.88;;;;;;;16.19;54.13;94149.97;4969153;28;20705;-62
2022/01/05 10:44:14;;;;;;;11.80;7.18;;;;;;;16.22;55.79;94093.16;4968986;28;20338;-62
2022/01/05 10:46:55;;;;;;;13.35;6.68;;;;;;;16.32;56.05;94078.31;4972420;28;20268;-63
2022/01/05 10:49:36;;;;;;;12.80;6.93;;;;;;;16.41;52.65;94158.53;4972986;28;20534;-63
2022/01/05 10:52:23;;;;;;;11.15;7.30;;;;;;;16.35;53.41;94116.44;4972727;28;20168;-62
2022/01/05 10:54:50;;;;;;;12.63;7.10;;;;;;;16.07;54.88;94060.81;4979271;28;20251;-62
2022/01/05 10:57:17;;;;;;;12.40;7.95;;;;;;;15.98;56.88;94006.25;4971219;28;20263;-63
2022/01/05 10:59:48;;;;;;;16.02;7.70;;;;;;;16.01;56.43;94025.63;4972512;28;20204;-60
2022/01/05 11:02:32;;;;;;;15.57;7.63;;;;;;;16.17;54.21;94076.72;4971045;28;20187;-64
2022/01/05 11:05:06;;;;;;;13.48;7.38;;;;;;;16.48;54.25;94072.97;4972667;28;20216;-63
2022/01/05 11:07:36;;;;;;;9.80;6.93;;;;;;;16.50;53.06;94077.97;4972335;28;20183;-64
2022/01/05 11:10:06;;;;;;;11.13;6.30;;;;;;;16.48;52.23;94100.44;4972424;28;20220;-63
2022/01/05 11:12:32;;;;;;;10.30;6.25;;;;;;;16.44;53.22;94064.03;4972204;28;20657;-61
2022/01/05 11:15:18;;;;;;;9.02;6.43;;;;;;;16.38;53.15;94064.75;4972542;28;20582;-60
2022/01/05 11:18:14;;;;;;;10.88;7.05;;;;;;;16.26;53.37;94048.25;4971592;28;20199;-64
2022/01/05 11:20:51;;;;;;;11.27;6.70;;;;;;;16.42;54.09;94014.69;4970667;28;20311;-62
2022/01/05 11:23:18;;;;;;;11.45;6.90;;;;;;;16.52;54.41;94022.91;4972086;28;20215;-60
2022/01/05 11:25:44;;;;;;;13.63;6.65;;;;;;;16.87;51.62;94084.72;4972282;28;20212;-60
2022/01/05 11:28:10;;;;;;;11.27;6.82;;;;;;;16.87;53.62;94013.59;4970592;28;20383;-62
2022/01/05 11:30:37;;;;;;;9.85;5.60;;;;;;;16.83;52.26;94045.75;4972309;28;20287;-61
2022/01/05 11:33:04;;;;;;;11.60;7.63;;;;;;;16.85;50.75;94078.97;4971957;28;20183;-62